sensor_id;sensor_type;location;lat;lon;timestamp;temperature;humidity
19224;DHT22;9746;47.180;9.776;2024-03-02T10:44:44;18.90;99.90
19224;DHT22;9746;47.180;9.776;2024-03-02T10:47:21;19.10;99.90
19224;DHT22;9746;47.180;9.776;2024-03-02T10:49:51;19.00;99.90
19224;DHT22;9746;47.180;9.776;2024-03-02T10:52:25;18.90;99.90
19224;DHT22;9746;47.180;9.776;2024-03-02T10:54:53;18.90;99.90
19224;DHT22;9746;47.180;9.776;2024-03-02T10:57:22;18.50;99.90
19224;DHT22;9746;47.180;9.776;2024-03-02T10:59:53;18.30;99.90
19224;DHT22;9746;47.180;9.776;2024-03-02T11:02:25;18.20;99.90
19224;DHT22;9746;47.180;9.776;2024-03-02T11:04:55;18.20;99.90
19224;DHT22;9746;47.180;9.776;2024-03-02T11:07:24;18.40;99.90
19224;DHT22;9746;47.180;9.776;2024-03-02T11:09:57;18.40;99.90
19224;DHT22;9746;47.180;9.776;2024-03-02T11:12:29;18.70;99.90
19224;DHT22;9746;47.180;9.776;2024-03-02T11:15:00;18.50;99.90
19224;DHT22;9746;47.180;9.776;2024-03-02T11:17:31;18.20;99.90
19224;DHT22;9746;47.180;9.776;2024-03-02T11:19:59;17.90;99.90
19224;DHT22;9746;47.180;9.776;2024-03-02T11:22:32;17.60;99.90
19224;DHT22;9746;47.180;9.776;2024-03-02T11:25:01;17.40;99.90
19224;DHT22;9746;47.180;9.776;2024-03-02T11:27:59;17.20;99.90
19224;DHT22;9746;47.180;9.776;2024-03-02T11:30:53;16.90;99.90
19224;DHT22;9746;47.180;9.776;2024-03-02T11:33:29;16.90;99.90
19224;DHT22;9746;47.180;9.776;2024-03-02T11:35:57;16.80;99.90
19224;DHT22;9746;47.180;9.776;2024-03-02T11:38:31;16.00;99.90
19224;DHT22;9746;47.180;9.776;2024-03-02T11:41:01;15.40;99.90
19224;DHT22;9746;47.180;9.776;2024-03-02T11:43:30;15.30;99.90
19224;DHT22;9746;47.180;9.776;2024-03-02T11:46:03;15.40;99.90
19224;DHT22;9746;47.180;9.776;2024-03-02T11:48:39;15.50;99.90
19224;DHT22;9746;47.180;9.776;2024-03-02T11:51:06;15.70;99.90
19224;DHT22;9746;47.180;9.776;2024-03-02T11:53:39;15.90;99.90
19224;DHT22;9746;47.180;9.776;2024-03-02T11:56:09;15.90;99.90
19224;DHT22;9746;47.180;9.776;2024-03-02T11:58:55;15.90;99.90
19224;DHT22;9746;47.180;9.776;2024-03-02T12:01:25;16.00;99.90
19224;DHT22;9746;47.180;9.776;2024-03-02T12:03:53;15.90;99.90
19224;DHT22;9746;47.180;9.776;2024-03-02T12:06:22;15.90;99.90
19224;DHT22;9746;47.180;9.776;2024-03-02T12:08:52;15.80;99.90
19224;DHT22;9746;47.180;9.776;2024-03-02T12:11:20;16.00;99.90
19224;DHT22;9746;47.180;9.776;2024-03-02T12:13:54;16.60;99.90
19224;DHT22;9746;47.180;9.776;2024-03-02T12:16:25;17.30;99.90
19224;DHT22;9746;47.180;9.776;2024-03-02T12:18:54;18.00;99.90
19224;DHT22;9746;47.180;9.776;2024-03-02T12:21:22;18.90;99.90
19224;DHT22;9746;47.180;9.776;2024-03-02T12:23:51;19.40;99.90
19224;DHT22;9746;47.180;9.776;2024-03-02T12:26:19;19.70;99.90
19224;DHT22;9746;47.180;9.776;2024-03-02T12:28:47;20.20;99.90
19224;DHT22;9746;47.180;9.776;2024-03-02T12:31:14;20.30;99.90
19224;DHT22;9746;47.180;9.776;2024-03-02T12:33:46;20.50;99.90
19224;DHT22;9746;47.180;9.776;2024-03-02T12:36:14;20.90;99.90
19224;DHT22;9746;47.180;9.776;2024-03-02T12:38:43;21.00;99.90
19224;DHT22;9746;47.180;9.776;2024-03-02T12:41:10;20.70;99.90
19224;DHT22;9746;47.180;9.776;2024-03-02T12:43:44;20.60;99.90
19224;DHT22;9746;47.180;9.776;2024-03-02T12:46:11;20.10;99.90
19224;DHT22;9746;47.180;9.776;2024-03-02T12:48:41;19.80;99.90
19224;DHT22;9746;47.180;9.776;2024-03-02T12:51:10;20.20;99.90
19224;DHT22;9746;47.180;9.776;2024-03-02T12:53:39;21.20;99.90
19224;DHT22;9746;47.180;9.776;2024-03-02T12:56:08;22.40;99.90
19224;DHT22;9746;47.180;9.776;2024-03-02T12:58:39;23.60;99.90
19224;DHT22;9746;47.180;9.776;2024-03-02T13:01:07;24.70;99.90
19224;DHT22;9746;47.180;9.776;2024-03-02T13:03:37;25.70;99.90
19224;DHT22;9746;47.180;9.776;2024-03-02T13:06:05;26.90;99.90
19224;DHT22;9746;47.180;9.776;2024-03-02T13:08:37;27.90;99.90
19224;DHT22;9746;47.180;9.776;2024-03-02T13:11:05;28.50;99.90
19224;DHT22;9746;47.180;9.776;2024-03-02T13:13:39;28.80;99.90
19224;DHT22;9746;47.180;9.776;2024-03-02T13:16:08;29.00;99.80
19224;DHT22;9746;47.180;9.776;2024-03-02T13:18:38;29.20;99.10
19224;DHT22;9746;47.180;9.776;2024-03-02T13:21:05;29.20;98.20
19224;DHT22;9746;47.180;9.776;2024-03-02T13:23:32;28.40;97.80
19224;DHT22;9746;47.180;9.776;2024-03-02T13:26:04;28.50;97.50
19224;DHT22;9746;47.180;9.776;2024-03-02T13:28:33;29.10;96.00
19224;DHT22;9746;47.180;9.776;2024-03-02T13:31:00;29.70;96.00
19224;DHT22;9746;47.180;9.776;2024-03-02T13:33:30;29.90;94.70
19224;DHT22;9746;47.180;9.776;2024-03-02T13:35:58;30.20;94.90
19224;DHT22;9746;47.180;9.776;2024-03-02T13:38:28;30.50;93.50
19224;DHT22;9746;47.180;9.776;2024-03-02T13:40:56;31.10;92.50
19224;DHT22;9746;47.180;9.776;2024-03-02T13:43:29;31.80;91.60
19224;DHT22;9746;47.180;9.776;2024-03-02T13:45:58;31.90;89.80
19224;DHT22;9746;47.180;9.776;2024-03-02T13:48:27;32.30;86.50
19224;DHT22;9746;47.180;9.776;2024-03-02T13:50:54;32.10;83.90
19224;DHT22;9746;47.180;9.776;2024-03-02T13:53:21;32.30;84.60
19224;DHT22;9746;47.180;9.776;2024-03-02T13:55:49;31.70;84.00
19224;DHT22;9746;47.180;9.776;2024-03-02T13:58:16;31.70;82.70
19224;DHT22;9746;47.180;9.776;2024-03-02T14:00:45;31.50;82.20
19224;DHT22;9746;47.180;9.776;2024-03-02T14:03:13;31.50;82.30
19224;DHT22;9746;47.180;9.776;2024-03-02T14:05:40;30.80;80.90
19224;DHT22;9746;47.180;9.776;2024-03-02T14:08:07;30.40;82.20
19224;DHT22;9746;47.180;9.776;2024-03-02T14:10:42;30.30;83.20
19224;DHT22;9746;47.180;9.776;2024-03-02T14:13:09;30.60;82.60
19224;DHT22;9746;47.180;9.776;2024-03-02T14:15:45;30.60;79.90
19224;DHT22;9746;47.180;9.776;2024-03-02T14:18:12;30.40;81.80
19224;DHT22;9746;47.180;9.776;2024-03-02T14:20:45;30.70;80.70
19224;DHT22;9746;47.180;9.776;2024-03-02T14:23:17;30.80;81.50
19224;DHT22;9746;47.180;9.776;2024-03-02T14:25:46;31.00;80.40
19224;DHT22;9746;47.180;9.776;2024-03-02T14:28:13;31.40;80.30
19224;DHT22;9746;47.180;9.776;2024-03-02T14:30:49;31.60;79.90
19224;DHT22;9746;47.180;9.776;2024-03-02T14:33:17;31.30;76.60
19224;DHT22;9746;47.180;9.776;2024-03-02T14:35:45;30.90;77.80
19224;DHT22;9746;47.180;9.776;2024-03-02T14:38:13;30.90;77.70
19224;DHT22;9746;47.180;9.776;2024-03-02T14:40:43;28.90;79.80
19224;DHT22;9746;47.180;9.776;2024-03-02T14:43:10;27.50;82.40
19224;DHT22;9746;47.180;9.776;2024-03-02T14:48:36;25.80;86.20
19224;DHT22;9746;47.180;9.776;2024-03-02T14:51:04;25.80;85.80
19224;DHT22;9746;47.180;9.776;2024-03-02T14:53:32;26.00;86.10
19224;DHT22;9746;47.180;9.776;2024-03-02T14:56:18;26.30;85.40
19224;DHT22;9746;47.180;9.776;2024-03-02T14:58:46;25.60;86.40
19224;DHT22;9746;47.180;9.776;2024-03-02T15:01:13;25.40;87.60
19224;DHT22;9746;47.180;9.776;2024-03-02T15:03:43;24.80;87.80
19224;DHT22;9746;47.180;9.776;2024-03-02T15:06:10;24.00;89.20
19224;DHT22;9746;47.180;9.776;2024-03-02T15:08:38;23.60;90.00
19224;DHT22;9746;47.180;9.776;2024-03-02T15:11:09;23.10;90.70
19224;DHT22;9746;47.180;9.776;2024-03-02T15:13:37;22.40;91.30
19224;DHT22;9746;47.180;9.776;2024-03-02T15:16:06;22.10;92.10
19224;DHT22;9746;47.180;9.776;2024-03-02T15:18:34;21.90;92.60
19224;DHT22;9746;47.180;9.776;2024-03-02T15:21:03;21.70;93.00
19224;DHT22;9746;47.180;9.776;2024-03-02T15:23:31;21.60;92.70
19224;DHT22;9746;47.180;9.776;2024-03-02T15:25:59;21.40;92.80
19224;DHT22;9746;47.180;9.776;2024-03-02T15:28:26;21.10;93.20
19224;DHT22;9746;47.180;9.776;2024-03-02T15:30:54;20.80;93.50
19224;DHT22;9746;47.180;9.776;2024-03-02T15:33:21;20.70;93.30
19224;DHT22;9746;47.180;9.776;2024-03-02T15:35:52;20.50;93.50
19224;DHT22;9746;47.180;9.776;2024-03-02T15:38:21;19.70;96.70
19224;DHT22;9746;47.180;9.776;2024-03-02T15:40:49;19.20;98.80
19224;DHT22;9746;47.180;9.776;2024-03-02T15:43:17;19.00;99.60
19224;DHT22;9746;47.180;9.776;2024-03-02T15:45:47;18.60;99.20
19224;DHT22;9746;47.180;9.776;2024-03-02T15:48:15;18.60;99.70
19224;DHT22;9746;47.180;9.776;2024-03-02T15:50:44;18.60;98.80
19224;DHT22;9746;47.180;9.776;2024-03-02T15:53:12;18.60;98.30
19224;DHT22;9746;47.180;9.776;2024-03-02T15:55:41;18.50;97.90
19224;DHT22;9746;47.180;9.776;2024-03-02T15:58:08;18.50;98.50
19224;DHT22;9746;47.180;9.776;2024-03-02T16:00:37;18.50;99.00
19224;DHT22;9746;47.180;9.776;2024-03-02T16:03:05;18.30;99.50
19224;DHT22;9746;47.180;9.776;2024-03-02T16:05:32;18.10;99.60
19224;DHT22;9746;47.180;9.776;2024-03-02T16:08:00;17.80;99.90
19224;DHT22;9746;47.180;9.776;2024-03-02T16:10:28;17.40;99.90
19224;DHT22;9746;47.180;9.776;2024-03-02T16:12:57;16.80;99.90
19224;DHT22;9746;47.180;9.776;2024-03-02T16:15:27;16.60;99.90
19224;DHT22;9746;47.180;9.776;2024-03-02T16:17:54;16.50;99.90
19224;DHT22;9746;47.180;9.776;2024-03-02T16:20:27;16.40;99.90
19224;DHT22;9746;47.180;9.776;2024-03-02T16:22:54;16.00;99.90
19224;DHT22;9746;47.180;9.776;2024-03-02T16:25:34;15.70;99.90
19224;DHT22;9746;47.180;9.776;2024-03-02T16:28:04;15.60;99.90
19224;DHT22;9746;47.180;9.776;2024-03-02T16:30:36;15.50;99.90
19224;DHT22;9746;47.180;9.776;2024-03-02T16:33:04;15.40;99.90
19224;DHT22;9746;47.180;9.776;2024-03-02T16:35:35;15.40;99.90
19224;DHT22;9746;47.180;9.776;2024-03-02T16:38:02;15.30;99.90
19224;DHT22;9746;47.180;9.776;2024-03-02T16:40:36;15.20;99.90
19224;DHT22;9746;47.180;9.776;2024-03-02T16:43:06;15.10;99.90
19224;DHT22;9746;47.180;9.776;2024-03-02T16:45:53;14.80;99.90
19224;DHT22;9746;47.180;9.776;2024-03-02T16:48:20;14.50;99.90
19224;DHT22;9746;47.180;9.776;2024-03-02T16:50:48;14.30;99.90
19224;DHT22;9746;47.180;9.776;2024-03-02T16:53:16;14.00;99.90
19224;DHT22;9746;47.180;9.776;2024-03-02T16:55:45;13.80;99.90
19224;DHT22;9746;47.180;9.776;2024-03-02T16:58:14;13.70;99.90
19224;DHT22;9746;47.180;9.776;2024-03-02T17:01:07;13.70;99.90
19224;DHT22;9746;47.180;9.776;2024-03-02T17:03:34;13.70;99.90
19224;DHT22;9746;47.180;9.776;2024-03-02T17:06:19;13.60;99.90
19224;DHT22;9746;47.180;9.776;2024-03-02T17:08:46;13.50;99.90
19224;DHT22;9746;47.180;9.776;2024-03-02T17:11:16;13.40;99.90
19224;DHT22;9746;47.180;9.776;2024-03-02T17:13:45;13.30;99.90
19224;DHT22;9746;47.180;9.776;2024-03-02T17:16:15;13.20;99.90
19224;DHT22;9746;47.180;9.776;2024-03-02T17:18:43;13.10;99.90
19224;DHT22;9746;47.180;9.776;2024-03-02T17:21:11;13.00;99.90
19224;DHT22;9746;47.180;9.776;2024-03-02T17:23:39;13.00;99.90
19224;DHT22;9746;47.180;9.776;2024-03-02T17:26:12;12.90;99.90
19224;DHT22;9746;47.180;9.776;2024-03-02T17:28:41;12.80;99.90
19224;DHT22;9746;47.180;9.776;2024-03-02T17:31:18;12.80;99.90
19224;DHT22;9746;47.180;9.776;2024-03-02T17:33:47;12.80;99.90
19224;DHT22;9746;47.180;9.776;2024-03-02T17:36:15;12.70;99.90
19224;DHT22;9746;47.180;9.776;2024-03-02T17:38:43;12.50;99.90
19224;DHT22;9746;47.180;9.776;2024-03-02T17:41:10;12.30;99.90
19224;DHT22;9746;47.180;9.776;2024-03-02T17:43:38;12.30;99.90
19224;DHT22;9746;47.180;9.776;2024-03-02T17:46:07;12.10;99.90
19224;DHT22;9746;47.180;9.776;2024-03-02T17:48:36;12.00;99.90
19224;DHT22;9746;47.180;9.776;2024-03-02T17:51:06;11.90;99.90
19224;DHT22;9746;47.180;9.776;2024-03-02T17:53:34;11.90;99.90
19224;DHT22;9746;47.180;9.776;2024-03-02T17:56:04;11.90;99.90
19224;DHT22;9746;47.180;9.776;2024-03-02T17:58:32;12.00;99.90
19224;DHT22;9746;47.180;9.776;2024-03-02T18:01:03;12.00;99.90
19224;DHT22;9746;47.180;9.776;2024-03-02T18:03:30;12.00;99.90
19224;DHT22;9746;47.180;9.776;2024-03-02T18:06:07;12.00;99.90
19224;DHT22;9746;47.180;9.776;2024-03-02T18:08:35;12.00;99.90
19224;DHT22;9746;47.180;9.776;2024-03-02T18:11:03;11.90;99.90
19224;DHT22;9746;47.180;9.776;2024-03-02T18:13:32;11.70;99.90
19224;DHT22;9746;47.180;9.776;2024-03-02T18:16:02;11.60;99.90
19224;DHT22;9746;47.180;9.776;2024-03-02T18:18:31;11.60;99.90
19224;DHT22;9746;47.180;9.776;2024-03-02T18:20:58;11.50;99.90
19224;DHT22;9746;47.180;9.776;2024-03-02T18:23:27;11.60;99.90
19224;DHT22;9746;47.180;9.776;2024-03-02T18:25:58;11.50;99.90
19224;DHT22;9746;47.180;9.776;2024-03-02T18:28:25;11.50;99.90
19224;DHT22;9746;47.180;9.776;2024-03-02T18:30:54;11.60;99.90
19224;DHT22;9746;47.180;9.776;2024-03-02T18:33:21;11.50;99.90
19224;DHT22;9746;47.180;9.776;2024-03-02T18:35:49;11.50;99.90
19224;DHT22;9746;47.180;9.776;2024-03-02T18:38:16;11.50;99.90
19224;DHT22;9746;47.180;9.776;2024-03-02T18:40:47;11.40;99.90
19224;DHT22;9746;47.180;9.776;2024-03-02T18:43:14;11.30;99.90
19224;DHT22;9746;47.180;9.776;2024-03-02T18:45:42;11.20;99.90
19224;DHT22;9746;47.180;9.776;2024-03-02T18:48:10;11.20;99.90
19224;DHT22;9746;47.180;9.776;2024-03-02T18:50:37;11.20;99.90
19224;DHT22;9746;47.180;9.776;2024-03-02T18:53:04;11.10;99.90
19224;DHT22;9746;47.180;9.776;2024-03-02T18:55:32;11.00;99.90
19224;DHT22;9746;47.180;9.776;2024-03-02T18:58:00;10.90;99.90
19224;DHT22;9746;47.180;9.776;2024-03-02T19:00:30;10.80;99.90
19224;DHT22;9746;47.180;9.776;2024-03-02T19:02:57;10.70;99.90
19224;DHT22;9746;47.180;9.776;2024-03-02T19:05:25;10.50;99.90
19224;DHT22;9746;47.180;9.776;2024-03-02T19:07:52;10.40;99.90
19224;DHT22;9746;47.180;9.776;2024-03-02T19:10:20;10.30;99.90
19224;DHT22;9746;47.180;9.776;2024-03-02T19:12:47;10.20;99.90
19224;DHT22;9746;47.180;9.776;2024-03-02T19:15:17;10.20;99.90
19224;DHT22;9746;47.180;9.776;2024-03-02T19:17:46;10.10;99.90
19224;DHT22;9746;47.180;9.776;2024-03-02T19:20:13;9.90;99.90
19224;DHT22;9746;47.180;9.776;2024-03-02T19:22:41;9.90;99.90
19224;DHT22;9746;47.180;9.776;2024-03-02T19:25:10;9.80;99.90
19224;DHT22;9746;47.180;9.776;2024-03-02T19:27:39;9.80;99.90
19224;DHT22;9746;47.180;9.776;2024-03-02T19:30:08;9.80;99.90
19224;DHT22;9746;47.180;9.776;2024-03-02T19:32:40;9.70;99.90
19224;DHT22;9746;47.180;9.776;2024-03-02T19:35:08;9.60;99.90
19224;DHT22;9746;47.180;9.776;2024-03-02T19:37:39;9.50;99.90
19224;DHT22;9746;47.180;9.776;2024-03-02T19:40:09;9.40;99.90
19224;DHT22;9746;47.180;9.776;2024-03-02T19:42:37;9.30;99.90
19224;DHT22;9746;47.180;9.776;2024-03-02T19:45:06;9.20;99.90
19224;DHT22;9746;47.180;9.776;2024-03-02T19:47:34;9.30;99.90
19224;DHT22;9746;47.180;9.776;2024-03-02T19:50:04;9.30;99.90
19224;DHT22;9746;47.180;9.776;2024-03-02T19:52:35;9.30;99.90
19224;DHT22;9746;47.180;9.776;2024-03-02T19:55:03;9.30;99.90
19224;DHT22;9746;47.180;9.776;2024-03-02T19:57:42;9.30;99.90
19224;DHT22;9746;47.180;9.776;2024-03-02T20:00:11;9.40;99.90
19224;DHT22;9746;47.180;9.776;2024-03-02T20:02:44;9.40;99.90
19224;DHT22;9746;47.180;9.776;2024-03-02T20:05:13;9.30;99.90
19224;DHT22;9746;47.180;9.776;2024-03-02T20:07:41;9.30;99.90
19224;DHT22;9746;47.180;9.776;2024-03-02T20:10:09;9.30;99.90
19224;DHT22;9746;47.180;9.776;2024-03-02T20:12:38;9.30;99.90
19224;DHT22;9746;47.180;9.776;2024-03-02T20:15:07;9.30;99.90
19224;DHT22;9746;47.180;9.776;2024-03-02T20:17:38;9.30;99.90
19224;DHT22;9746;47.180;9.776;2024-03-02T20:20:07;9.40;99.90
19224;DHT22;9746;47.180;9.776;2024-03-02T20:22:36;9.60;99.90
19224;DHT22;9746;47.180;9.776;2024-03-02T20:25:05;9.70;99.90
19224;DHT22;9746;47.180;9.776;2024-03-02T20:27:36;9.60;99.90
19224;DHT22;9746;47.180;9.776;2024-03-02T20:30:05;9.70;99.90
19224;DHT22;9746;47.180;9.776;2024-03-02T20:32:33;9.70;99.90
19224;DHT22;9746;47.180;9.776;2024-03-02T20:35:01;9.70;99.90
19224;DHT22;9746;47.180;9.776;2024-03-02T20:37:41;9.90;99.90
19224;DHT22;9746;47.180;9.776;2024-03-02T20:40:10;10.00;99.90
19224;DHT22;9746;47.180;9.776;2024-03-02T20:42:41;10.10;99.90
19224;DHT22;9746;47.180;9.776;2024-03-02T20:45:09;10.20;99.90
19224;DHT22;9746;47.180;9.776;2024-03-02T20:47:44;10.30;99.90
19224;DHT22;9746;47.180;9.776;2024-03-02T20:50:12;10.40;99.90
19224;DHT22;9746;47.180;9.776;2024-03-02T20:52:44;10.50;99.90
19224;DHT22;9746;47.180;9.776;2024-03-02T20:55:13;10.40;99.90
19224;DHT22;9746;47.180;9.776;2024-03-02T20:57:55;10.40;99.90
19224;DHT22;9746;47.180;9.776;2024-03-02T21:00:23;10.30;99.90
19224;DHT22;9746;47.180;9.776;2024-03-02T21:03:00;10.20;99.90
19224;DHT22;9746;47.180;9.776;2024-03-02T21:05:27;10.10;99.90
19224;DHT22;9746;47.180;9.776;2024-03-02T21:08:16;10.30;99.90
19224;DHT22;9746;47.180;9.776;2024-03-02T21:10:44;10.50;99.90
